createdAt,value
2018-04-25T00:00:56.269Z,95.46
2018-04-25T00:01:56.255Z,95.56
2018-04-25T00:02:56.242Z,95.56
2018-04-25T00:03:56.227Z,95.56
2018-04-25T00:04:56.214Z,95.46
2018-04-25T00:05:56.193Z,95.46
2018-04-25T00:06:56.180Z,94.98
2018-04-25T00:07:56.164Z,94.89
2018-04-25T00:08:56.148Z,95.75
2018-04-25T00:09:56.133Z,95.17
2018-04-25T00:10:56.118Z,94.79
2018-04-25T00:11:56.103Z,95.36
2018-04-25T00:12:56.087Z,95.46
2018-04-25T00:13:56.072Z,95.17
2018-04-25T00:14:56.058Z,95.08
2018-04-25T00:15:56.060Z,95.36
2018-04-25T00:16:56.026Z,95.17
2018-04-25T00:17:56.012Z,94.70
2018-04-25T00:18:55.997Z,94.79
2018-04-25T00:19:55.982Z,94.89
2018-04-25T00:20:55.970Z,95.36
2018-04-25T00:21:55.956Z,95.75
2018-04-25T00:22:55.941Z,95.36
2018-04-25T00:23:55.922Z,95.27
2018-04-25T00:24:55.907Z,94.89
2018-04-25T00:25:55.890Z,95.17
2018-04-25T00:26:55.874Z,95.56
2018-04-25T00:27:55.861Z,95.75
2018-04-25T00:28:55.850Z,94.89
2018-04-25T00:29:55.832Z,95.65
2018-04-25T00:30:55.815Z,95.65
2018-04-25T00:31:55.799Z,94.98
2018-04-25T00:32:55.789Z,94.89
2018-04-25T00:33:55.772Z,95.56
2018-04-25T00:34:55.757Z,95.65
2018-04-25T00:35:55.743Z,95.17
2018-04-25T00:36:55.724Z,95.17
2018-04-25T00:37:55.710Z,95.36
2018-04-25T00:38:55.695Z,94.89
2018-04-25T00:39:55.682Z,95.94
2018-04-25T00:40:55.664Z,95.27
2018-04-25T00:41:55.650Z,95.56
2018-04-25T00:42:55.633Z,94.89
2018-04-25T00:43:55.619Z,95.46
2018-04-25T00:44:55.604Z,95.36
2018-04-25T00:45:55.591Z,95.08
2018-04-25T00:46:55.574Z,95.27
2018-04-25T00:47:55.559Z,95.46
2018-04-25T00:48:55.543Z,95.46
2018-04-25T00:49:55.529Z,95.94
2018-04-25T00:50:55.513Z,95.94
2018-04-25T00:51:55.497Z,95.84
2018-04-25T00:52:55.484Z,95.84
2018-04-25T00:53:55.470Z,95.94
2018-04-25T00:54:55.453Z,95.94
2018-04-25T00:55:55.438Z,95.65
2018-04-25T00:56:55.422Z,96.13
2018-04-25T00:57:55.410Z,96.80
2018-04-25T00:58:55.406Z,95.94
2018-04-25T00:59:55.376Z,96.03
2018-04-25T01:00:55.364Z,96.03
2018-04-25T01:01:55.345Z,95.75
2018-04-25T01:02:55.331Z,95.84
2018-04-25T01:03:55.320Z,95.94
2018-04-25T01:04:55.301Z,96.03
2018-04-25T01:05:55.288Z,96.51
2018-04-25T01:06:55.270Z,96.13
2018-04-25T01:07:55.255Z,96.22
2018-04-25T01:08:55.240Z,96.42
2018-04-25T01:09:55.225Z,96.13
2018-04-25T01:10:55.210Z,96.32
2018-04-25T01:11:55.221Z,96.42
2018-04-25T01:12:55.179Z,96.70
2018-04-25T01:13:55.164Z,95.94
2018-04-25T01:14:55.150Z,95.84
2018-04-25T01:15:55.134Z,95.46
2018-04-25T01:16:55.118Z,95.36
2018-04-25T01:17:55.104Z,95.94
2018-04-25T01:18:55.088Z,95.94
2018-04-25T01:19:55.073Z,95.27
2018-04-25T01:20:55.059Z,94.98
2018-04-25T01:21:55.043Z,95.27
2018-04-25T01:22:55.035Z,94.89
2018-04-25T01:23:55.016Z,94.79
2018-04-25T01:24:54.999Z,94.98
2018-04-25T01:25:54.984Z,95.46
2018-04-25T01:26:54.967Z,95.46
2018-04-25T01:27:54.954Z,95.46
2018-04-25T01:28:54.944Z,95.08
2018-04-25T01:29:54.922Z,95.08
2018-04-25T01:30:54.908Z,95.08
2018-04-25T01:31:54.890Z,95.08
2018-04-25T01:32:54.876Z,95.36
2018-04-25T01:33:54.863Z,95.17
2018-04-25T01:34:54.850Z,95.36
2018-04-25T01:35:54.831Z,95.84
2018-04-25T01:36:54.818Z,96.13
2018-04-25T01:37:54.800Z,95.56
2018-04-25T01:38:54.793Z,95.94
2018-04-25T01:39:54.770Z,96.22
2018-04-25T01:40:54.758Z,96.70
2018-04-25T01:41:54.740Z,96.03
2018-04-25T01:42:54.726Z,96.13
2018-04-25T01:43:54.712Z,96.32
2018-04-25T01:44:54.695Z,96.89
2018-04-25T01:45:54.678Z,96.61
2018-04-25T01:46:54.672Z,96.70
2018-04-25T01:47:54.650Z,96.42
2018-04-25T01:48:54.633Z,96.75
2018-04-25T01:49:54.619Z,97.08
2018-04-25T01:50:54.603Z,96.46
2018-04-25T01:51:54.589Z,96.61
2018-04-25T01:52:54.573Z,97.08
2018-04-25T01:53:54.560Z,96.98
2018-04-25T01:54:54.546Z,96.80
2018-04-25T01:55:54.527Z,96.89
2018-04-25T01:56:54.515Z,96.89
2018-04-25T01:57:54.499Z,96.80
2018-04-25T01:58:54.483Z,96.51
2018-04-25T01:59:54.467Z,97.08
2018-04-25T02:00:54.453Z,96.80
2018-04-25T02:01:54.437Z,96.51
2018-04-25T02:02:54.422Z,96.80
2018-04-25T02:03:54.406Z,96.89
2018-04-25T02:04:54.393Z,98.23
2018-04-25T02:05:54.381Z,98.03
2018-04-25T02:06:54.361Z,98.23
2018-04-25T02:07:54.352Z,97.94
2018-04-25T02:08:54.331Z,98.03
2018-04-25T02:09:54.320Z,97.56
2018-04-25T02:10:54.302Z,97.08
2018-04-25T02:11:54.288Z,97.03
2018-04-25T02:12:54.281Z,96.27
2018-04-25T02:13:54.256Z,96.32
2018-04-25T02:14:54.240Z,96.13
2018-04-25T02:15:54.224Z,96.89
2018-04-25T02:16:54.209Z,96.46
2018-04-25T02:17:54.195Z,96.56
2018-04-25T02:18:54.179Z,96.56
2018-04-25T02:19:54.164Z,96.80
2018-04-25T02:20:54.149Z,96.56
2018-04-25T02:21:54.135Z,96.80
2018-04-25T02:22:54.121Z,96.70
2018-04-25T02:23:54.106Z,96.51
2018-04-25T02:24:54.090Z,96.51
2018-04-25T02:25:54.071Z,96.70
2018-04-25T02:26:54.059Z,96.89
2018-04-25T02:27:54.041Z,96.61
2018-04-25T02:28:54.026Z,96.70
2018-04-25T02:29:54.010Z,96.70
2018-04-25T02:30:54.003Z,96.70
2018-04-25T02:31:53.984Z,96.70
2018-04-25T02:32:53.973Z,96.61
2018-04-25T02:33:53.959Z,96.51
2018-04-25T02:34:53.936Z,96.98
2018-04-25T02:35:53.926Z,96.89
2018-04-25T02:36:53.904Z,96.32
2018-04-25T02:37:53.892Z,96.70
2018-04-25T02:38:53.874Z,96.61
2018-04-25T02:39:53.858Z,96.61
2018-04-25T02:40:53.845Z,95.94
2018-04-25T02:41:53.827Z,96.46
2018-04-25T02:42:53.813Z,96.89
2018-04-25T02:43:53.797Z,96.80
2018-04-25T02:44:53.784Z,96.32
2018-04-25T02:45:53.767Z,97.47
2018-04-25T02:46:53.753Z,96.80
2018-04-25T02:47:53.737Z,96.89
2018-04-25T02:48:53.722Z,97.03
2018-04-25T02:49:53.722Z,96.84
2018-04-25T02:50:53.692Z,97.03
2018-04-25T02:51:53.675Z,97.42
2018-04-25T02:52:53.665Z,97.37
2018-04-25T02:53:53.647Z,97.42
2018-04-25T02:54:53.637Z,97.89
2018-04-25T02:55:53.619Z,97.80
2018-04-25T02:56:53.600Z,98.18
2018-04-25T02:57:53.590Z,97.71
2018-04-25T02:58:53.653Z,97.61
2018-04-25T02:59:53.556Z,98.18
2018-04-25T03:00:53.541Z,98.18
2018-04-25T03:01:53.526Z,97.08
2018-04-25T03:02:53.509Z,97.99
2018-04-25T03:03:53.497Z,98.23
2018-04-25T03:04:53.479Z,98.75
2018-04-25T03:05:53.467Z,98.18
2018-04-25T03:06:53.448Z,98.37
2018-04-25T03:07:53.434Z,97.80
2018-04-25T03:08:53.420Z,97.94
2018-04-25T03:09:53.403Z,97.22
2018-04-25T03:10:53.392Z,97.99
2018-04-25T03:11:53.377Z,97.13
2018-04-25T03:12:53.357Z,97.80
2018-04-25T03:13:53.342Z,97.08
2018-04-25T03:14:53.336Z,98.03
2018-04-25T03:15:53.312Z,98.08
2018-04-25T03:16:53.311Z,98.18
2018-04-25T03:17:53.283Z,97.99
2018-04-25T03:18:53.269Z,98.03
2018-04-25T03:19:53.253Z,96.94
2018-04-25T03:20:53.236Z,97.61
2018-04-25T03:21:53.227Z,97.61
2018-04-25T03:22:53.205Z,98.23
2018-04-25T03:23:53.190Z,97.51
2018-04-25T03:24:53.174Z,97.03
2018-04-25T03:25:53.160Z,97.42
2018-04-25T03:26:53.145Z,97.99
2018-04-25T03:27:53.128Z,97.56
2018-04-25T03:28:53.122Z,98.08
2018-04-25T03:29:53.099Z,97.27
2018-04-25T03:30:53.084Z,96.66
2018-04-25T03:31:53.067Z,96.75
2018-04-25T03:32:53.053Z,96.80
2018-04-25T03:33:53.037Z,97.47
2018-04-25T03:34:53.023Z,97.22
2018-04-25T03:35:53.005Z,97.08
2018-04-25T03:36:52.990Z,96.75
2018-04-25T03:37:52.976Z,96.66
2018-04-25T03:38:52.965Z,96.46
2018-04-25T03:39:52.950Z,96.46
2018-04-25T03:40:52.931Z,96.37
2018-04-25T03:41:52.915Z,96.42
2018-04-25T03:42:52.899Z,96.27
2018-04-25T03:43:52.884Z,96.27
2018-04-25T03:44:52.873Z,96.46
2018-04-25T03:45:52.853Z,96.51
2018-04-25T03:46:52.839Z,96.61
2018-04-25T03:47:52.822Z,96.70
2018-04-25T03:48:52.809Z,96.32
2018-04-25T03:49:52.792Z,96.42
2018-04-25T03:50:52.778Z,96.70
2018-04-25T03:51:52.762Z,96.61
2018-04-25T03:52:52.746Z,96.42
2018-04-25T03:53:52.730Z,96.42
2018-04-25T03:54:52.715Z,96.42
2018-04-25T03:55:52.698Z,96.03
2018-04-25T03:56:52.693Z,96.61
2018-04-25T03:57:52.677Z,95.94
2018-04-25T03:58:52.654Z,96.32
2018-04-25T03:59:52.640Z,96.61
2018-04-25T04:00:52.627Z,95.94
2018-04-25T04:01:52.608Z,96.32
2018-04-25T04:02:52.592Z,96.70
2018-04-25T04:03:52.582Z,96.13
2018-04-25T04:04:52.566Z,95.94
2018-04-25T04:05:52.545Z,96.42
2018-04-25T04:06:52.532Z,96.42
2018-04-25T04:07:52.518Z,96.70
2018-04-25T04:08:52.503Z,96.61
2018-04-25T04:09:52.487Z,96.51
2018-04-25T04:10:52.471Z,96.80
2018-04-25T04:11:52.459Z,96.22
2018-04-25T04:12:52.442Z,96.61
2018-04-25T04:13:52.426Z,96.61
2018-04-25T04:14:52.411Z,96.51
2018-04-25T04:15:52.393Z,95.84
2018-04-25T04:16:52.378Z,95.75
2018-04-25T04:17:52.363Z,96.03
2018-04-25T04:18:52.348Z,95.75
2018-04-25T04:19:52.337Z,95.75
2018-04-25T04:20:52.317Z,95.84
2018-04-25T04:21:52.305Z,95.84
2018-04-25T04:22:52.288Z,96.03
2018-04-25T04:23:52.274Z,95.36
2018-04-25T04:24:52.310Z,94.89
2018-04-25T04:25:52.249Z,95.17
2018-04-25T04:26:52.226Z,95.84
2018-04-25T04:27:52.225Z,95.75
2018-04-25T04:28:52.196Z,96.03
2018-04-25T04:29:52.180Z,96.03
2018-04-25T04:30:52.167Z,96.03
2018-04-25T04:31:52.149Z,95.46
2018-04-25T04:32:52.137Z,95.65
2018-04-25T04:33:52.119Z,96.51
2018-04-25T04:34:52.106Z,96.13
2018-04-25T04:35:52.088Z,96.70
2018-04-25T04:36:52.078Z,96.13
2018-04-25T04:37:52.063Z,95.17
2018-04-25T04:38:52.045Z,95.17
2018-04-25T04:39:52.036Z,95.75
2018-04-25T04:40:52.017Z,95.36
2018-04-25T04:41:51.998Z,95.65
2018-04-25T04:42:51.984Z,95.94
2018-04-25T04:43:51.972Z,95.94
2018-04-25T04:44:51.972Z,96.03
2018-04-25T04:45:51.945Z,96.13
2018-04-25T04:46:51.921Z,96.13
2018-04-25T04:47:51.906Z,95.94
2018-04-25T04:48:51.891Z,95.94
2018-04-25T04:49:51.877Z,96.03
2018-04-25T04:50:51.861Z,95.94
2018-04-25T04:51:51.844Z,96.03
2018-04-25T04:52:51.831Z,96.03
2018-04-25T04:53:51.815Z,95.84
2018-04-25T04:54:51.801Z,95.36
2018-04-25T04:55:51.789Z,94.70
2018-04-25T04:56:51.775Z,94.98
2018-04-25T04:57:51.755Z,94.60
2018-04-25T04:58:51.740Z,95.08
2018-04-25T04:59:51.722Z,94.89
2018-04-25T05:00:51.710Z,94.70
2018-04-25T05:01:51.694Z,94.74
2018-04-25T05:02:51.681Z,95.03
2018-04-25T05:03:51.667Z,95.03
2018-04-25T05:04:51.648Z,94.46
2018-04-25T05:05:51.636Z,94.27
2018-04-25T05:06:51.617Z,94.36
2018-04-25T05:07:51.602Z,94.22
2018-04-25T05:08:51.591Z,94.17
2018-04-25T05:09:51.571Z,94.36
2018-04-25T05:10:51.557Z,93.88
2018-04-25T05:11:51.541Z,94.27
2018-04-25T05:12:51.528Z,94.17
2018-04-25T05:13:51.538Z,93.79
2018-04-25T05:14:51.497Z,93.60
2018-04-25T05:15:51.484Z,93.70
2018-04-25T05:16:51.474Z,93.31
2018-04-25T05:17:51.461Z,93.70
2018-04-25T05:18:51.441Z,93.70
2018-04-25T05:19:51.423Z,93.41
2018-04-25T05:20:51.408Z,93.70
2018-04-25T05:21:51.390Z,93.70
2018-04-25T05:22:51.378Z,93.02
2018-04-25T05:23:51.364Z,92.83
2018-04-25T05:24:51.349Z,92.64
2018-04-25T05:25:51.331Z,92.74
2018-04-25T05:26:51.321Z,93.41
2018-04-25T05:27:51.310Z,93.31
2018-04-25T05:28:51.289Z,93.12
2018-04-25T05:29:51.277Z,92.55
2018-04-25T05:30:51.263Z,92.16
2018-04-25T05:31:51.272Z,92.55
2018-04-25T05:32:51.231Z,93.21
2018-04-25T05:33:51.213Z,92.16
2018-04-25T05:34:51.201Z,92.16
2018-04-25T05:35:51.184Z,91.59
2018-04-25T05:36:51.168Z,91.88
2018-04-25T05:37:51.155Z,91.50
2018-04-25T05:38:51.139Z,91.30
2018-04-25T05:39:51.124Z,91.97
2018-04-25T05:40:51.110Z,91.40
2018-04-25T05:41:51.096Z,91.40
2018-04-25T05:42:51.081Z,91.97
2018-04-25T05:43:51.070Z,92.26
2018-04-25T05:44:51.053Z,91.78
2018-04-25T05:45:51.036Z,92.36
2018-04-25T05:46:51.020Z,91.16
2018-04-25T05:47:51.004Z,92.40
2018-04-25T05:48:51.051Z,91.45
2018-04-25T05:49:50.975Z,90.88
2018-04-25T05:50:50.961Z,91.06
2018-04-25T05:51:50.947Z,90.20
2018-04-25T05:52:50.930Z,89.63
2018-04-25T05:53:50.918Z,90.39
2018-04-25T05:54:50.903Z,90.20
2018-04-25T05:55:50.887Z,90.97
2018-04-25T05:56:50.874Z,91.93
2018-04-25T05:57:50.939Z,91.35
2018-04-25T05:58:50.846Z,92.88
2018-04-25T05:59:50.830Z,94.60
2018-04-25T06:00:50.817Z,95.46
2018-04-25T06:01:50.800Z,94.79
2018-04-25T06:02:50.787Z,96.03
2018-04-25T06:03:50.772Z,96.32
2018-04-25T06:04:50.757Z,96.61
2018-04-25T06:05:50.741Z,96.89
2018-04-25T06:06:50.729Z,95.75
2018-04-25T06:07:50.724Z,94.93
2018-04-25T06:08:50.697Z,94.70
2018-04-25T06:09:50.684Z,95.46
2018-04-25T06:10:50.668Z,94.60
2018-04-25T06:11:50.652Z,95.46
2018-04-25T06:12:50.642Z,95.46
2018-04-25T06:13:50.626Z,94.70
2018-04-25T06:14:50.612Z,93.65
2018-04-25T06:15:50.596Z,94.22
2018-04-25T06:16:50.582Z,92.88
2018-04-25T06:17:50.567Z,94.41
2018-04-25T06:18:50.552Z,93.45
2018-04-25T06:19:50.546Z,93.16
2018-04-25T06:20:50.528Z,92.83
2018-04-25T06:21:50.508Z,91.59
2018-04-25T06:22:50.501Z,90.82
2018-04-25T06:23:50.479Z,90.44
2018-04-25T06:24:50.464Z,91.02
2018-04-25T06:25:50.457Z,89.87
2018-04-25T06:26:50.437Z,90.44
2018-04-25T06:27:50.426Z,90.53
2018-04-25T06:28:50.409Z,90.16
2018-04-25T06:29:50.392Z,89.67
2018-04-25T06:30:50.382Z,89.29
2018-04-25T06:31:50.364Z,89.01
2018-04-25T06:32:50.353Z,88.62
2018-04-25T06:33:50.336Z,89.82
2018-04-25T06:34:50.322Z,89.20
2018-04-25T06:35:50.306Z,89.01
2018-04-25T06:36:50.294Z,88.39
2018-04-25T06:37:50.290Z,87.91
2018-04-25T06:38:50.262Z,88.87
2018-04-25T06:39:50.248Z,89.34
2018-04-25T06:40:50.239Z,88.87
2018-04-25T06:41:50.220Z,88.58
2018-04-25T06:42:50.206Z,88.68
2018-04-25T06:43:50.193Z,88.87
2018-04-25T06:44:50.291Z,88.29
2018-04-25T06:45:50.161Z,88.29
2018-04-25T06:46:50.148Z,88.68
2018-04-25T06:47:50.136Z,88.48
2018-04-25T06:48:50.117Z,88.48
2018-04-25T06:49:50.103Z,88.10
2018-04-25T06:50:50.088Z,88.01
2018-04-25T06:51:50.072Z,87.57
2018-04-25T06:52:50.072Z,87.57
2018-04-25T06:53:50.044Z,86.76
2018-04-25T06:54:50.029Z,86.96
2018-04-25T06:55:50.013Z,86.43
2018-04-25T06:56:50.072Z,86.61
2018-04-25T06:57:49.983Z,86.43
2018-04-25T06:58:49.970Z,85.85
2018-04-25T06:59:49.955Z,86.43
2018-04-25T07:00:49.939Z,86.43
2018-04-25T07:01:49.925Z,87.19
2018-04-25T07:02:49.914Z,86.33
2018-04-25T07:03:49.895Z,87.57
2018-04-25T07:04:49.880Z,87.57
2018-04-25T07:05:49.877Z,88.91
2018-04-25T07:06:49.855Z,88.05
2018-04-25T07:07:49.870Z,89.20
2018-04-25T07:08:49.832Z,88.72
2018-04-25T07:09:49.808Z,90.63
2018-04-25T07:10:49.796Z,90.82
2018-04-25T07:11:49.778Z,91.97
2018-04-25T07:12:49.766Z,93.21
2018-04-25T07:13:49.751Z,93.74
2018-04-25T07:14:49.735Z,92.21
2018-04-25T07:15:49.725Z,91.35
2018-04-25T07:16:49.706Z,92.21
2018-04-25T07:17:49.693Z,93.26
2018-04-25T07:18:49.677Z,91.93
2018-04-25T07:19:49.661Z,92.02
2018-04-25T07:20:49.652Z,91.74
2018-04-25T07:21:49.637Z,91.25
2018-04-25T07:22:49.617Z,92.21
2018-04-25T07:23:49.640Z,92.21
2018-04-25T07:24:49.589Z,91.83
2018-04-25T07:25:49.578Z,91.45
2018-04-25T07:26:49.563Z,91.59
2018-04-25T07:27:49.546Z,90.97
2018-04-25T07:28:49.532Z,90.20
2018-04-25T07:29:49.522Z,90.53
2018-04-25T07:30:49.500Z,90.78
2018-04-25T07:31:49.486Z,91.39
2018-04-25T07:32:49.471Z,90.53
2018-04-25T07:33:49.455Z,90.78
2018-04-25T07:34:49.443Z,90.44
2018-04-25T07:35:49.426Z,89.67
2018-04-25T07:36:49.410Z,89.48
2018-04-25T07:37:49.397Z,90.92
2018-04-25T07:38:49.381Z,89.06
2018-04-25T07:39:49.367Z,88.72
2018-04-25T07:40:49.352Z,88.77
2018-04-25T07:41:49.349Z,89.01
2018-04-25T07:42:49.322Z,89.01
2018-04-25T07:43:49.307Z,88.43
2018-04-25T07:44:49.291Z,87.86
2018-04-25T07:45:49.281Z,88.43
2018-04-25T07:46:49.267Z,87.76
2018-04-25T07:47:49.250Z,86.90
2018-04-25T07:48:49.233Z,87.00
2018-04-25T07:49:49.218Z,86.43
2018-04-25T07:50:49.203Z,87.00
2018-04-25T07:51:49.187Z,87.38
2018-04-25T07:52:49.171Z,87.38
2018-04-25T07:53:49.159Z,87.29
2018-04-25T07:54:49.145Z,87.38
2018-04-25T07:55:49.129Z,86.23
2018-04-25T07:56:49.116Z,86.23
2018-04-25T07:57:49.177Z,87.48
2018-04-25T07:58:49.085Z,86.43
2018-04-25T07:59:49.070Z,86.43
2018-04-25T08:00:49.055Z,86.52
2018-04-25T08:01:49.040Z,86.47
2018-04-25T08:02:49.026Z,86.61
2018-04-25T08:03:49.012Z,87.29
2018-04-25T08:04:48.996Z,87.19
2018-04-25T08:05:48.982Z,85.18
2018-04-25T08:06:48.967Z,85.09
2018-04-25T08:07:48.955Z,86.52
2018-04-25T08:08:48.936Z,84.94
2018-04-25T08:09:48.923Z,84.27
2018-04-25T08:10:48.907Z,84.94
2018-04-25T08:11:48.894Z,83.50
2018-04-25T08:12:48.880Z,83.89
2018-04-25T08:13:48.886Z,84.27
2018-04-25T08:14:48.853Z,83.50
2018-04-25T08:15:48.838Z,83.60
2018-04-25T08:16:48.821Z,83.40
2018-04-25T08:17:48.815Z,83.60
2018-04-25T08:18:48.790Z,83.12
2018-04-25T08:19:48.779Z,83.12
2018-04-25T08:20:48.763Z,82.45
2018-04-25T08:21:48.748Z,82.49
2018-04-25T08:22:48.734Z,82.87
2018-04-25T08:23:48.812Z,81.92
2018-04-25T08:24:48.707Z,81.34
2018-04-25T08:25:48.694Z,81.15
2018-04-25T08:26:48.681Z,79.81
2018-04-25T08:27:48.665Z,80.29
2018-04-25T08:28:48.658Z,80.14
2018-04-25T08:29:48.635Z,80.24
2018-04-25T08:30:48.624Z,79.66
2018-04-25T08:31:48.611Z,78.42
2018-04-25T08:32:48.594Z,77.94
2018-04-25T08:33:48.584Z,77.65
2018-04-25T08:34:48.568Z,77.55
2018-04-25T08:35:48.553Z,77.94
2018-04-25T08:36:48.540Z,79.08
2018-04-25T08:37:48.527Z,77.59
2018-04-25T08:38:48.515Z,77.11
2018-04-25T08:39:48.555Z,76.25
2018-04-25T08:40:48.489Z,76.15
2018-04-25T08:41:48.481Z,75.96
2018-04-25T08:42:48.460Z,75.48
2018-04-25T08:43:48.447Z,75.01
2018-04-25T08:44:48.497Z,75.48
2018-04-25T08:45:48.419Z,75.96
2018-04-25T08:46:48.404Z,75.58
2018-04-25T08:47:48.391Z,75.48
2018-04-25T08:48:48.380Z,74.33
2018-04-25T08:49:48.365Z,73.95
2018-04-25T08:50:48.353Z,74.91
2018-04-25T08:51:48.339Z,75.29
2018-04-25T08:52:48.408Z,74.24
2018-04-25T08:53:48.319Z,73.86
2018-04-25T08:54:48.301Z,74.33
2018-04-25T08:55:48.286Z,73.86
2018-04-25T08:56:48.276Z,73.66
2018-04-25T08:57:48.267Z,74.18
2018-04-25T08:58:48.249Z,73.74
2018-04-25T08:59:48.235Z,72.49
2018-04-25T09:00:48.223Z,72.39
2018-04-25T09:01:48.212Z,71.92
2018-04-25T09:02:48.198Z,71.82
2018-04-25T09:03:48.197Z,70.96
2018-04-25T09:04:48.175Z,71.76
2018-04-25T09:05:48.211Z,70.51
2018-04-25T09:06:48.149Z,70.90
2018-04-25T09:07:48.134Z,70.80
2018-04-25T09:08:48.124Z,70.99
2018-04-25T09:09:48.110Z,71.86
2018-04-25T09:10:48.104Z,70.90
2018-04-25T09:11:48.086Z,70.61
2018-04-25T09:12:48.075Z,68.79
2018-04-25T09:13:48.062Z,68.34
2018-04-25T09:14:48.051Z,68.24
2018-04-25T09:15:48.041Z,69.11
2018-04-25T09:16:48.028Z,68.44
2018-04-25T09:17:48.024Z,68.95
2018-04-25T09:18:48.003Z,67.54
2018-04-25T09:19:47.995Z,65.91
2018-04-25T09:20:47.986Z,65.91
2018-04-25T09:21:47.975Z,65.08
2018-04-25T09:22:47.961Z,63.35
2018-04-25T09:23:47.951Z,63.09
2018-04-25T09:24:47.949Z,61.58
2018-04-25T09:25:47.928Z,62.93
2018-04-25T09:26:47.987Z,62.09
2018-04-25T09:27:47.908Z,61.71
2018-04-25T09:28:47.902Z,61.45
2018-04-25T09:29:47.890Z,59.91
2018-04-25T09:30:47.883Z,60.20
2018-04-25T09:31:47.873Z,58.17
2018-04-25T09:32:47.871Z,57.89
2018-04-25T09:33:47.856Z,57.89
2018-04-25T09:34:47.852Z,58.85
2018-04-25T09:35:47.838Z,58.47
2018-04-25T09:36:47.831Z,58.27
2018-04-25T09:37:47.826Z,58.82
2018-04-25T09:38:47.823Z,58.63
2018-04-25T09:39:47.810Z,58.85
2018-04-25T09:40:47.801Z,57.62
2018-04-25T09:41:47.800Z,56.30
2018-04-25T09:42:47.786Z,55.89
2018-04-25T09:43:47.779Z,55.79
2018-04-25T09:44:47.776Z,56.63
2018-04-25T09:45:47.766Z,56.37
2018-04-25T09:46:47.761Z,55.41
2018-04-25T09:47:47.761Z,55.38
2018-04-25T09:48:47.746Z,56.44
2018-04-25T09:49:47.743Z,57.31
2018-04-25T09:50:47.738Z,57.31
2018-04-25T09:51:47.793Z,57.24
2018-04-25T09:52:47.720Z,55.05
2018-04-25T09:53:47.714Z,53.25
2018-04-25T09:54:47.708Z,51.73
2018-04-25T09:55:47.701Z,51.99
2018-04-25T09:56:47.699Z,52.09
2018-04-25T09:57:47.758Z,53.99
2018-04-25T09:58:47.686Z,53.22
2018-04-25T09:59:47.677Z,52.83
2018-04-25T10:00:47.675Z,52.28
2018-04-25T10:01:47.669Z,52.76
2018-04-25T10:02:47.665Z,52.57
2018-04-25T10:03:47.660Z,52.55
2018-04-25T10:04:47.654Z,52.86
2018-04-25T10:05:47.649Z,51.89
2018-04-25T10:06:47.644Z,50.98
2018-04-25T10:07:47.640Z,49.46
2018-04-25T10:08:47.638Z,49.53
2018-04-25T10:09:47.631Z,50.11
2018-04-25T10:10:47.717Z,50.79
2018-04-25T10:11:47.621Z,50.28
2018-04-25T10:12:47.621Z,49.96
2018-04-25T10:13:47.612Z,51.80
2018-04-25T10:14:47.609Z,51.87
2018-04-25T10:15:47.605Z,52.81
2018-04-25T10:16:47.600Z,52.71
2018-04-25T10:17:47.603Z,53.36
2018-04-25T10:18:47.590Z,54.42
2018-04-25T10:19:47.589Z,55.35
2018-04-25T10:20:47.579Z,54.97
2018-04-25T10:21:47.574Z,55.65
2018-04-25T10:22:47.570Z,54.49
2018-04-25T10:23:47.563Z,54.85
2018-04-25T10:24:47.558Z,55.90
2018-04-25T10:25:47.552Z,55.81
2018-04-25T10:26:47.546Z,56.00
2018-04-25T10:27:47.545Z,55.90
2018-04-25T10:28:47.535Z,56.77
2018-04-25T10:29:47.531Z,56.29
2018-04-25T10:30:47.521Z,55.55
2018-04-25T10:31:47.515Z,55.16
2018-04-25T10:32:47.509Z,54.71
2018-04-25T10:33:47.510Z,53.84
2018-04-25T10:34:47.499Z,53.94
2018-04-25T10:35:47.495Z,54.10
2018-04-25T10:36:47.483Z,54.78
2018-04-25T10:37:47.479Z,54.68
2018-04-25T10:38:47.485Z,54.56
2018-04-25T10:39:47.463Z,55.52
2018-04-25T10:40:47.455Z,54.65
2018-04-25T10:41:47.448Z,54.65
2018-04-25T10:42:47.446Z,54.63
2018-04-25T10:43:47.436Z,55.78
2018-04-25T10:44:47.427Z,55.68
2018-04-25T10:45:47.421Z,55.68
2018-04-25T10:46:47.417Z,55.98
2018-04-25T10:47:47.404Z,56.26
2018-04-25T10:48:47.403Z,56.65
2018-04-25T10:49:47.389Z,56.07
2018-04-25T10:50:47.381Z,55.78
2018-04-25T10:51:47.373Z,55.78
2018-04-25T10:52:47.368Z,55.88
2018-04-25T10:53:47.358Z,55.78
2018-04-25T10:54:47.351Z,56.65
2018-04-25T10:55:47.341Z,56.65
2018-04-25T10:56:47.335Z,55.81
2018-04-25T10:57:47.326Z,56.16
2018-04-25T10:58:47.320Z,56.26
2018-04-25T10:59:47.310Z,55.68
2018-04-25T11:00:47.300Z,55.98
2018-04-25T11:01:47.294Z,55.78
2018-04-25T11:02:47.284Z,55.88
2018-04-25T11:03:47.275Z,57.03
2018-04-25T11:04:47.268Z,57.22
2018-04-25T11:05:47.259Z,56.93
2018-04-25T11:06:47.257Z,56.26
2018-04-25T11:07:47.239Z,56.33
2018-04-25T11:08:47.231Z,57.29
2018-04-25T11:09:47.228Z,57.58
2018-04-25T11:10:47.214Z,57.77
2018-04-25T11:11:47.207Z,57.48
2018-04-25T11:12:47.195Z,57.10
2018-04-25T11:13:47.188Z,58.45
2018-04-25T11:14:47.183Z,65.43
2018-04-25T11:15:47.170Z,69.37
2018-04-25T11:16:47.159Z,71.83
2018-04-25T11:17:47.153Z,76.79
2018-04-25T11:18:47.143Z,78.61
2018-04-25T11:19:47.182Z,79.53
2018-04-25T11:20:47.119Z,82.37
2018-04-25T11:21:47.109Z,84.28
2018-04-25T11:22:47.101Z,85.78
2018-04-25T11:23:47.091Z,87.37
2018-04-25T11:24:47.079Z,88.80
2018-04-25T11:25:47.067Z,88.42
2018-04-25T11:26:47.060Z,91.44
2018-04-25T11:27:47.047Z,92.01
2018-04-25T11:28:47.038Z,92.21
2018-04-25T11:29:47.034Z,92.06
2018-04-25T11:30:47.013Z,93.21
2018-04-25T11:31:47.050Z,93.69
2018-04-25T11:32:46.992Z,95.84
2018-04-25T11:33:46.980Z,97.37
2018-04-25T11:34:46.977Z,99.38
2018-04-25T11:35:46.955Z,99.99
2018-04-25T11:36:46.944Z,99.99
2018-04-25T11:37:46.941Z,99.99
2018-04-25T11:38:46.919Z,99.99
2018-04-25T11:39:46.905Z,99.99
2018-04-25T11:40:46.892Z,99.99
2018-04-25T11:41:46.884Z,99.99
2018-04-25T11:42:46.871Z,99.99
2018-04-25T11:43:46.857Z,99.99
2018-04-25T11:44:46.849Z,99.99
2018-04-25T11:45:46.831Z,99.99
2018-04-25T11:46:46.818Z,99.99
2018-04-25T11:47:46.803Z,99.99
2018-04-25T11:48:46.791Z,99.99
2018-04-25T11:49:46.779Z,99.99
2018-04-25T11:50:46.767Z,99.99
2018-04-25T11:51:46.749Z,99.99
2018-04-25T11:52:46.739Z,99.99
2018-04-25T11:53:46.727Z,99.99
2018-04-25T11:54:46.735Z,99.99
2018-04-25T11:55:46.700Z,99.99
2018-04-25T11:56:46.687Z,99.99
2018-04-25T11:57:46.671Z,99.99
2018-04-25T11:58:46.658Z,99.99
2018-04-25T11:59:46.724Z,99.99
2018-04-25T12:00:46.631Z,99.99
2018-04-25T12:01:46.620Z,99.99
2018-04-25T12:02:46.615Z,99.99
2018-04-25T12:03:46.595Z,99.99
2018-04-25T12:04:46.578Z,99.99
2018-04-25T12:05:46.565Z,99.99
2018-04-25T12:06:46.555Z,99.99
2018-04-25T12:07:46.549Z,99.87
2018-04-25T12:08:46.531Z,96.66
2018-04-25T12:09:46.515Z,95.03
2018-04-25T12:10:46.505Z,93.15
2018-04-25T12:11:46.495Z,93.01
2018-04-25T12:12:46.482Z,91.47
2018-04-25T12:13:46.474Z,87.72
2018-04-25T12:14:46.463Z,84.26
2018-04-25T12:15:46.450Z,84.78
2018-04-25T12:16:46.443Z,86.65
2018-04-25T12:17:46.432Z,83.81
2018-04-25T12:18:46.475Z,82.60
2018-04-25T12:19:46.421Z,82.74
2018-04-25T12:20:46.413Z,80.94
2018-04-25T12:21:46.402Z,73.82
2018-04-25T12:22:46.397Z,73.91
2018-04-25T12:23:46.390Z,72.75
2018-04-25T12:24:46.385Z,75.97
2018-04-25T12:25:46.378Z,71.64
2018-04-25T12:26:46.377Z,69.71
2018-04-25T12:27:46.367Z,68.52
2018-04-25T12:28:46.364Z,70.31
2018-04-25T12:29:46.361Z,70.21
2018-04-25T12:30:46.355Z,70.64
2018-04-25T12:31:46.354Z,64.98
2018-04-25T12:32:46.361Z,65.20
2018-04-25T12:33:46.342Z,64.37
2018-04-25T12:34:46.340Z,62.54
2018-04-25T12:35:46.369Z,62.95
2018-04-25T12:36:46.338Z,61.12
2018-04-25T12:37:46.335Z,61.89
2018-04-25T12:38:46.327Z,59.28
2018-04-25T12:39:46.324Z,61.60
2018-04-25T12:40:46.323Z,58.91
2018-04-25T12:41:46.320Z,60.42
2018-04-25T12:42:46.317Z,62.99
2018-04-25T12:43:46.315Z,64.21
2018-04-25T12:44:46.312Z,65.37
2018-04-25T12:45:46.310Z,66.30
2018-04-25T12:46:46.306Z,67.65
2018-04-25T12:47:46.301Z,67.13
2018-04-25T12:48:46.298Z,66.27
2018-04-25T12:49:46.296Z,66.61
2018-04-25T12:50:46.289Z,68.44
2018-04-25T12:51:46.286Z,69.50
2018-04-25T12:52:46.285Z,69.31